createdAt,value
2023-01-28T00:02:23.484Z,102236.72
2023-01-28T00:04:51.854Z,102248.44
2023-01-28T00:07:21.610Z,102235.88
2023-01-28T00:09:49.492Z,102235.03
2023-01-28T00:12:17.464Z,102238.78
2023-01-28T00:14:46.344Z,102239.63
2023-01-28T00:17:14.575Z,102241.50
2023-01-28T00:19:42.509Z,102244.22
2023-01-28T00:22:10.442Z,102238.78
2023-01-28T00:24:39.993Z,102229.78
2023-01-28T00:27:07.875Z,102228.91
2023-01-28T00:29:35.792Z,102232.69
2023-01-28T00:32:03.678Z,102227.25
2023-01-28T00:34:31.902Z,102229.13
2023-01-28T00:36:59.776Z,102225.34
2023-01-28T00:39:27.887Z,102222.84
2023-01-28T00:41:57.216Z,102220.13
2023-01-28T00:44:25.376Z,102218.44
2023-01-28T00:46:53.343Z,102220.13
2023-01-28T00:49:21.338Z,102218.44
2023-01-28T00:51:49.963Z,102228.28
2023-01-28T00:54:18.306Z,102233.72
2023-01-28T00:56:46.297Z,102227.78
2023-01-28T00:59:15.579Z,102222.34
2023-01-28T01:01:43.491Z,102217.75
2023-01-28T01:04:11.490Z,102207.91
2023-01-28T01:06:40.023Z,102212.31
2023-01-28T01:09:08.895Z,102216.91
2023-01-28T01:11:36.828Z,102216.91
2023-01-28T01:14:05.382Z,102232.19
2023-01-28T01:16:36.221Z,102227.78
2023-01-28T01:19:04.177Z,102233.22
2023-01-28T01:21:32.181Z,102235.09
2023-01-28T01:24:00.415Z,102228.81
2023-01-28T01:26:28.481Z,102234.25
2023-01-28T01:28:56.356Z,102231.53
2023-01-28T01:31:24.341Z,102233.41
2023-01-28T01:33:53.703Z,102237.16
2023-01-28T01:36:22.110Z,102232.56
2023-01-28T01:38:53.608Z,102236.31
2023-01-28T01:41:27.375Z,102227.13
2023-01-28T01:43:56.508Z,102230.88
2023-01-28T01:46:27.354Z,102235.47
2023-01-28T01:48:56.651Z,102230.03
2023-01-28T01:51:26.579Z,102233.59
2023-01-28T01:53:54.916Z,102240.88
2023-01-28T01:56:24.077Z,102195.91
2023-01-28T01:58:52.184Z,102216.22
2023-01-28T02:01:20.878Z,102231.03
2023-01-28T02:03:53.288Z,102230.03
2023-01-28T02:06:22.663Z,102235.63
2023-01-28T02:08:50.549Z,102238.34
2023-01-28T02:11:18.765Z,102238.16
2023-01-28T02:13:49.263Z,102169.84
2023-01-28T02:16:17.177Z,102241.91
2023-01-28T02:18:45.062Z,102252.78
2023-01-28T02:21:35.014Z,102241.91
2023-01-28T02:24:23.528Z,102243.69
2023-01-28T02:26:57.788Z,102221.22
2023-01-28T02:29:28.539Z,102261.13
2023-01-28T02:32:00.074Z,102263.00
2023-01-28T02:34:34.420Z,102260.28
2023-01-28T02:37:04.429Z,102259.44
2023-01-28T02:39:34.609Z,102260.28
2023-01-28T02:42:03.849Z,102265.72
2023-01-28T02:44:33.424Z,102260.28
2023-01-28T02:47:18.471Z,102266.56
2023-01-28T02:49:48.393Z,102262.03
2023-01-28T02:52:41.901Z,102269.63
2023-01-28T02:55:10.323Z,102272.19
2023-01-28T02:57:39.711Z,102256.97
2023-01-28T03:00:12.729Z,102276.94
2023-01-28T03:02:44.057Z,102274.91
2023-01-28T03:05:14.807Z,102283.22
2023-01-28T03:07:42.884Z,102284.06
2023-01-28T03:10:12.380Z,102269.50
2023-01-28T03:12:59.059Z,102277.94
2023-01-28T03:15:47.477Z,102271.56
2023-01-28T03:18:34.820Z,102292.22
2023-01-28T03:21:23.118Z,102282.38
2023-01-28T03:24:13.220Z,102278.81
2023-01-28T03:27:03.389Z,102271.75
2023-01-28T03:29:48.889Z,102275.97
2023-01-28T03:32:36.108Z,102274.41
2023-01-28T03:35:21.230Z,102278.16
2023-01-28T03:37:49.159Z,102277.13
2023-01-28T03:40:18.863Z,102273.56
2023-01-28T03:42:46.755Z,102275.22
2023-01-28T03:45:15.710Z,102279.84
2023-01-28T03:47:45.084Z,102272.53
2023-01-28T03:50:12.987Z,102278.81
2023-01-28T03:52:40.920Z,102280.66
2023-01-28T03:55:13.386Z,102275.22
2023-01-28T03:57:41.799Z,102286.09
2023-01-28T04:00:11.646Z,102279.84
2023-01-28T04:02:40.237Z,102286.94
2023-01-28T04:05:13.115Z,102294.25
2023-01-28T04:07:42.172Z,102294.25
2023-01-28T04:10:11.203Z,102296.81
2023-01-28T04:12:39.090Z,102294.25
2023-01-28T04:15:16.004Z,102294.47
2023-01-28T04:17:47.163Z,102294.78
2023-01-28T04:20:16.697Z,102299.38
2023-01-28T04:22:44.576Z,102302.09
2023-01-28T04:25:13.227Z,102302.31
2023-01-28T04:27:41.395Z,102300.44
2023-01-28T04:30:10.873Z,102308.59
2023-01-28T04:32:39.065Z,102307.72
2023-01-28T04:35:07.867Z,102309.41
2023-01-28T04:37:37.157Z,102310.44
2023-01-28T04:40:05.673Z,102318.59
2023-01-28T04:42:33.565Z,102318.59
2023-01-28T04:45:01.719Z,102315.03
2023-01-28T04:47:29.562Z,102325.69
2023-01-28T04:49:57.501Z,102330.31
2023-01-28T04:52:25.486Z,102334.69
2023-01-28T04:54:55.006Z,102330.31
2023-01-28T04:57:22.921Z,102328.41
2023-01-28T04:59:50.833Z,102332.00
2023-01-28T05:02:18.802Z,102332.00
2023-01-28T05:04:47.374Z,102327.41
2023-01-28T05:07:15.240Z,102325.53
2023-01-28T05:09:43.149Z,102322.81
2023-01-28T05:12:12.422Z,102327.41
2023-01-28T05:14:40.565Z,102330.13
2023-01-28T05:17:08.503Z,102330.97
2023-01-28T05:19:36.423Z,102330.97
2023-01-28T05:22:04.298Z,102324.69
2023-01-28T05:24:32.514Z,102330.13
2023-01-28T05:27:00.617Z,102328.25
2023-01-28T05:29:29.890Z,102326.38
2023-01-28T05:31:57.747Z,102315.50
2023-01-28T05:34:26.208Z,102319.25
2023-01-28T05:36:54.093Z,102329.94
2023-01-28T05:39:21.978Z,102321.81
2023-01-28T05:41:49.887Z,102318.22
2023-01-28T05:44:18.031Z,102320.94
2023-01-28T05:46:47.333Z,102315.34
2023-01-28T05:49:15.250Z,102331.66
2023-01-28T05:51:43.180Z,102336.22
2023-01-28T05:54:11.493Z,102333.50
2023-01-28T05:56:40.348Z,102342.50
2023-01-28T05:59:08.231Z,102354.22
2023-01-28T06:01:36.127Z,102357.13
2023-01-28T06:04:05.934Z,102332.22
2023-01-28T06:06:33.839Z,102359.84
2023-01-28T06:09:01.727Z,102363.41
2023-01-28T06:11:29.614Z,102357.97
2023-01-28T06:13:57.775Z,102359.66
2023-01-28T06:16:25.835Z,102364.09
2023-01-28T06:18:53.771Z,102364.25
2023-01-28T06:21:23.052Z,102368.66
2023-01-28T06:23:50.924Z,102360.69
2023-01-28T06:26:18.818Z,102366.13
2023-01-28T06:28:46.686Z,102360.69
2023-01-28T06:31:14.637Z,102369.53
2023-01-28T06:33:42.557Z,102368.66
2023-01-28T06:36:11.064Z,102365.94
2023-01-28T06:38:40.348Z,102365.94
2023-01-28T06:41:08.273Z,102359.47
2023-01-28T06:43:36.151Z,102356.75
2023-01-28T06:46:04.332Z,102355.94
2023-01-28T06:48:32.265Z,102357.81
2023-01-28T06:51:00.231Z,102362.38
2023-01-28T06:53:28.140Z,102373.25
2023-01-28T06:55:57.708Z,102376.81
2023-01-28T06:58:25.672Z,102371.38
2023-01-28T07:00:54.561Z,102374.59
2023-01-28T07:03:22.631Z,102383.09
2023-01-28T07:05:51.023Z,102371.41
2023-01-28T07:08:19.071Z,102379.53
2023-01-28T07:10:47.095Z,102382.06
2023-01-28T07:13:16.489Z,102375.97
2023-01-28T07:15:44.802Z,102374.44
2023-01-28T07:18:12.815Z,102364.41
2023-01-28T07:20:40.832Z,102368.47
2023-01-28T07:23:08.742Z,102373.91
2023-01-28T07:25:36.980Z,102364.41
2023-01-28T07:28:05.008Z,102373.06
2023-01-28T07:30:34.403Z,102367.63
2023-01-28T07:33:02.416Z,102370.34
2023-01-28T07:35:32.431Z,102368.47
2023-01-28T07:38:01.037Z,102366.13
2023-01-28T07:40:29.313Z,102379.34
2023-01-28T07:42:57.242Z,102382.06
2023-01-28T07:45:25.578Z,102379.53
2023-01-28T07:47:58.338Z,102378.50
2023-01-28T07:50:26.566Z,102384.78
2023-01-28T07:52:54.790Z,102383.09
2023-01-28T07:55:22.984Z,102378.00
2023-01-28T07:57:52.182Z,102385.81
2023-01-28T08:00:20.884Z,102383.91
2023-01-28T08:02:49.070Z,102383.09
2023-01-28T08:05:20.540Z,102386.63
2023-01-28T08:07:49.511Z,102393.97
2023-01-28T08:10:18.020Z,102393.97
2023-01-28T08:12:53.283Z,102402.13
2023-01-28T08:15:21.142Z,102404.00
2023-01-28T08:17:49.010Z,102404.16
2023-01-28T08:20:17.731Z,102413.00
2023-01-28T08:22:47.114Z,102419.25
2023-01-28T08:25:15.411Z,102423.66
2023-01-28T08:27:43.361Z,102425.53
2023-01-28T08:30:12.588Z,102425.53
2023-01-28T08:32:40.993Z,102434.53
2023-01-28T08:35:09.668Z,102430.81
2023-01-28T08:37:37.686Z,102434.53
2023-01-28T08:40:08.540Z,102428.09
2023-01-28T08:42:36.457Z,102439.13
2023-01-28T08:45:04.726Z,102442.69
2023-01-28T08:47:32.586Z,102448.13
2023-01-28T08:50:00.503Z,102451.69
2023-01-28T08:52:28.360Z,102446.25
2023-01-28T08:54:56.496Z,102443.69
2023-01-28T08:57:25.763Z,102432.84
2023-01-28T08:59:53.639Z,102446.41
2023-01-28T09:02:31.035Z,102444.06
2023-01-28T09:04:59.974Z,102445.94
2023-01-28T09:07:27.843Z,102457.66
2023-01-28T09:09:55.764Z,102465.63
2023-01-28T09:12:25.099Z,102469.22
2023-01-28T09:14:53.620Z,102463.94
2023-01-28T09:17:21.561Z,102479.38
2023-01-28T09:19:50.025Z,102491.09
2023-01-28T09:22:17.971Z,102501.97
2023-01-28T09:24:46.178Z,102497.41
2023-01-28T09:27:14.136Z,102496.53
2023-01-28T09:29:43.379Z,102500.09
2023-01-28T09:32:11.364Z,102509.28
2023-01-28T09:34:40.527Z,102505.72
2023-01-28T09:37:08.408Z,102510.81
2023-01-28T09:39:36.316Z,102509.28
2023-01-28T09:42:14.255Z,102504.00
2023-01-28T09:44:54.115Z,102503.53
2023-01-28T09:47:25.553Z,102506.91
2023-01-28T09:49:54.250Z,102502.31
2023-01-28T09:52:23.247Z,102507.75
2023-01-28T09:54:52.103Z,102503.16
2023-01-28T09:57:22.004Z,102514.03
2023-01-28T09:59:51.289Z,102521.31
2023-01-28T10:02:36.337Z,102513.19
2023-01-28T10:05:09.007Z,102511.50
2023-01-28T10:07:39.896Z,102525.09
2023-01-28T10:10:09.980Z,102520.50
2023-01-28T10:12:45.200Z,102509.63
2023-01-28T10:15:41.076Z,102510.47
2023-01-28T10:18:17.053Z,102507.75
2023-01-28T10:20:46.805Z,102513.19
2023-01-28T10:23:17.404Z,102519.47
2023-01-28T10:25:48.145Z,102510.47
2023-01-28T10:28:20.255Z,102507.75
2023-01-28T10:30:49.793Z,102505.88
2023-01-28T10:33:20.400Z,102505.88
2023-01-28T10:35:48.760Z,102512.34
2023-01-28T10:38:17.329Z,102516.09
2023-01-28T10:40:48.344Z,102496.06
2023-01-28T10:43:17.490Z,102505.03
2023-01-28T10:45:54.305Z,102502.13
2023-01-28T10:48:24.245Z,102520.16
2023-01-28T10:50:52.497Z,102494.84
2023-01-28T10:53:20.624Z,102499.44
2023-01-28T10:55:51.656Z,102488.59
2023-01-28T10:58:20.958Z,102509.97
2023-01-28T11:00:53.716Z,102510.81
2023-01-28T11:03:21.682Z,102509.28
2023-01-28T11:05:53.066Z,102514.72
2023-01-28T11:08:21.073Z,102513.00
2023-01-28T11:10:49.053Z,102515.72
2023-01-28T11:13:18.112Z,102518.44
2023-01-28T11:15:51.029Z,102514.03
2023-01-28T11:18:20.263Z,102510.66
2023-01-28T11:20:52.843Z,102518.28
2023-01-28T11:23:23.030Z,102510.28
2023-01-28T11:25:51.191Z,102526.59
2023-01-28T11:28:19.795Z,102510.13
2023-01-28T11:30:52.681Z,102523.88
2023-01-28T11:33:21.415Z,102530.16
2023-01-28T11:35:56.013Z,102531.00
2023-01-28T11:38:24.971Z,102526.59
2023-01-28T11:40:53.679Z,102519.28
2023-01-28T11:43:22.075Z,102528.28
2023-01-28T11:45:55.955Z,102525.59
2023-01-28T11:48:29.687Z,102326.53
2023-01-28T11:50:59.578Z,102522.00
2023-01-28T11:53:40.418Z,102509.44
2023-01-28T11:56:20.266Z,102513.00
2023-01-28T11:58:52.632Z,102507.75
2023-01-28T12:01:24.145Z,102503.16
2023-01-28T12:04:02.847Z,102514.88
2023-01-28T12:06:40.311Z,102495.19
2023-01-28T12:09:14.267Z,102500.63
2023-01-28T12:12:07.374Z,102498.78
2023-01-28T12:14:38.521Z,102487.06
2023-01-28T12:17:14.446Z,102488.72
2023-01-28T12:19:56.385Z,102476.72
2023-01-28T12:23:01.789Z,102489.44
2023-01-28T12:25:37.051Z,102497.06
2023-01-28T12:28:10.064Z,102503.53
2023-01-28T12:31:04.370Z,102495.38
2023-01-28T12:33:45.522Z,102495.19
2023-01-28T12:36:21.404Z,102497.06
2023-01-28T12:38:54.032Z,102485.34
2023-01-28T12:41:23.609Z,102474.47
2023-01-28T12:43:54.485Z,102479.06
2023-01-28T12:46:33.357Z,102474.47
2023-01-28T12:49:05.772Z,102469.91
2023-01-28T12:51:35.944Z,102464.63
2023-01-28T12:54:07.067Z,102437.16
2023-01-28T12:56:35.630Z,102442.72
2023-01-28T12:59:05.432Z,102442.72
2023-01-28T13:01:38.444Z,102435.44
2023-01-28T13:04:09.659Z,102424.94
2023-01-28T13:06:39.482Z,102430.16
2023-01-28T13:09:13.204Z,102418.28
2023-01-28T13:11:41.140Z,102408.25
2023-01-28T13:14:10.290Z,102397.19
2023-01-28T13:16:38.578Z,102400.09
2023-01-28T13:19:09.431Z,102381.25
2023-01-28T13:21:48.649Z,102368.53
2023-01-28T13:24:23.051Z,102369.38
2023-01-28T13:26:51.627Z,102357.66
2023-01-28T13:29:22.128Z,102364.09
2023-01-28T13:31:52.425Z,102383.81
2023-01-28T13:34:36.611Z,102395.69
2023-01-28T13:37:06.445Z,102409.28
2023-01-28T13:39:35.165Z,102414.53
2023-01-28T13:42:11.132Z,102418.09
2023-01-28T13:44:39.343Z,102419.13
2023-01-28T13:47:16.180Z,102430.66
2023-01-28T13:49:45.996Z,102428.13
2023-01-28T13:52:16.098Z,102421.00
2023-01-28T13:54:45.566Z,102419.97
2023-01-28T13:57:35.143Z,102413.00
2023-01-28T14:00:08.745Z,102419.13
2023-01-28T14:02:57.662Z,102436.28
2023-01-28T14:05:47.184Z,102453.41
2023-01-28T14:08:47.567Z,102451.53
2023-01-28T14:11:23.439Z,102449.88
2023-01-28T14:14:28.279Z,102451.53
2023-01-28T14:16:57.055Z,102448.81
2023-01-28T14:19:32.790Z,102418.13
2023-01-28T14:22:08.327Z,102405.59
2023-01-28T14:24:37.628Z,102449.88
2023-01-28T14:27:08.045Z,102445.09
2023-01-28T14:29:44.102Z,102446.94
2023-01-28T14:32:14.169Z,102446.09
2023-01-28T14:34:42.368Z,102439.81
2023-01-28T14:37:14.204Z,102447.97
2023-01-28T14:39:44.657Z,102445.25
2023-01-28T14:42:15.626Z,102446.09
2023-01-28T14:44:43.764Z,102427.44
2023-01-28T14:47:30.148Z,102424.38
2023-01-28T14:50:06.202Z,102420.78
2023-01-28T14:53:15.076Z,102412.66
2023-01-28T14:55:47.452Z,102411.81
2023-01-28T14:58:17.375Z,102416.41
2023-01-28T15:00:54.315Z,102412.84
2023-01-28T15:03:26.076Z,102393.81
2023-01-28T15:06:04.534Z,102384.47
2023-01-28T15:08:33.823Z,102389.91
2023-01-28T15:11:01.749Z,102393.47
2023-01-28T15:13:30.535Z,102394.47
2023-01-28T15:16:00.715Z,102395.31
2023-01-28T15:18:31.923Z,102384.47
2023-01-28T15:20:59.803Z,102403.69
2023-01-28T15:23:30.285Z,102412.66
2023-01-28T15:25:59.812Z,102414.53
2023-01-28T15:28:29.128Z,102411.63
2023-01-28T15:30:57.152Z,102417.91
2023-01-28T15:33:25.376Z,102408.91
2023-01-28T15:35:54.154Z,102409.94
2023-01-28T15:38:22.121Z,102414.34
2023-01-28T15:40:51.500Z,102419.78
2023-01-28T15:43:22.965Z,102425.41
2023-01-28T15:45:52.350Z,102427.94
2023-01-28T15:48:20.241Z,102429.81
2023-01-28T15:50:48.190Z,102434.38
2023-01-28T15:53:16.114Z,102430.00
2023-01-28T15:55:44.414Z,102422.53
2023-01-28T15:58:30.568Z,102428.94
2023-01-28T16:01:15.560Z,102430.84
2023-01-28T16:03:44.656Z,102427.28
2023-01-28T16:06:13.931Z,102440.88
2023-01-28T16:08:43.239Z,102449.00
2023-01-28T16:11:11.189Z,102449.00
2023-01-28T16:13:44.244Z,102458.03
2023-01-28T16:16:12.527Z,102469.91
2023-01-28T16:18:41.585Z,102464.47
2023-01-28T16:21:11.859Z,102457.34
2023-01-28T16:23:40.022Z,102463.44
2023-01-28T16:26:20.424Z,102474.31
2023-01-28T16:28:49.864Z,102483.28
2023-01-28T16:31:17.886Z,102484.34
2023-01-28T16:33:45.806Z,102496.22
2023-01-28T16:36:14.134Z,102497.06
2023-01-28T16:38:42.088Z,102500.63
2023-01-28T16:41:14.431Z,102504.22
2023-01-28T16:43:42.339Z,102506.91
2023-01-28T16:46:14.957Z,102506.06
2023-01-28T16:48:42.924Z,102516.09
2023-01-28T16:51:15.671Z,102512.53
2023-01-28T16:53:43.545Z,102514.38
2023-01-28T16:56:35.700Z,102523.38
2023-01-28T16:59:01.926Z,102520.69
2023-01-28T17:01:31.229Z,102514.38
2023-01-28T17:03:59.458Z,102522.53
2023-01-28T17:06:27.419Z,102527.81
2023-01-28T17:08:55.349Z,102529.69
2023-01-28T17:11:23.247Z,102516.09
2023-01-28T17:13:51.146Z,102501.66
2023-01-28T17:16:19.455Z,102497.06
2023-01-28T17:18:52.341Z,102492.81
2023-01-28T17:21:20.219Z,102495.19
2023-01-28T17:23:48.173Z,102500.81
2023-01-28T17:26:16.582Z,102506.25
2023-01-28T17:28:44.526Z,102504.38
2023-01-28T17:31:13.719Z,102506.06
2023-01-28T17:33:41.909Z,102502.50
2023-01-28T17:36:11.955Z,102502.66
2023-01-28T17:38:39.850Z,102498.94
2023-01-28T17:41:08.435Z,102491.63
2023-01-28T17:43:36.331Z,102488.91
2023-01-28T17:46:11.764Z,102489.78
2023-01-28T17:48:39.672Z,102493.50
2023-01-28T17:51:07.651Z,102497.06
2023-01-28T17:53:36.956Z,102488.06
2023-01-28T17:56:05.488Z,102498.94
2023-01-28T17:58:33.485Z,102504.53
2023-01-28T18:01:01.441Z,102498.09
2023-01-28T18:03:29.348Z,102508.97
2023-01-28T18:06:00.431Z,102522.53
2023-01-28T18:08:28.353Z,102536.13
2023-01-28T18:10:57.605Z,102539.69
2023-01-28T18:13:25.657Z,102542.41
2023-01-28T18:15:53.836Z,102555.13
2023-01-28T18:18:21.710Z,102548.69
2023-01-28T18:20:58.126Z,102539.69
2023-01-28T18:23:26.067Z,102536.97
2023-01-28T18:25:58.338Z,102542.41
2023-01-28T18:28:26.350Z,102545.13
2023-01-28T18:30:54.323Z,102552.44
2023-01-28T18:33:23.364Z,102553.28
2023-01-28T18:35:51.830Z,102569.41
2023-01-28T18:38:19.729Z,102574.00
2023-01-28T18:40:47.659Z,102562.44
2023-01-28T18:43:16.925Z,102561.44
2023-01-28T18:45:49.298Z,102554.97
2023-01-28T18:48:17.505Z,102558.56
2023-01-28T18:50:50.935Z,102545.13
2023-01-28T18:53:18.834Z,102552.25
2023-01-28T18:55:46.730Z,102560.41
2023-01-28T18:58:16.052Z,102562.28
2023-01-28T19:00:43.946Z,102560.41
2023-01-28T19:03:11.872Z,102567.53
2023-01-28T19:05:40.261Z,102580.28
2023-01-28T19:08:08.556Z,102581.94
2023-01-28T19:10:36.516Z,102560.59
2023-01-28T19:13:04.409Z,102572.13
2023-01-28T19:15:33.714Z,102583.00
2023-01-28T19:18:03.364Z,102580.28
2023-01-28T19:20:31.237Z,102565.66
2023-01-28T19:22:59.186Z,102565.66
2023-01-28T19:25:27.038Z,102565.84
2023-01-28T19:27:55.663Z,102571.28
2023-01-28T19:30:23.572Z,102575.00
2023-01-28T19:32:54.011Z,102571.28
2023-01-28T19:35:21.956Z,102580.28
2023-01-28T19:37:49.867Z,102581.09
2023-01-28T19:40:18.641Z,102576.72
2023-01-28T19:42:46.678Z,102583.16
2023-01-28T19:45:14.912Z,102583.16
2023-01-28T19:47:42.880Z,102581.28
2023-01-28T19:50:13.017Z,102573.47
2023-01-28T19:52:40.907Z,102572.28
2023-01-28T19:55:10.223Z,102582.31
2023-01-28T19:57:38.596Z,102576.88
2023-01-28T20:00:09.337Z,102578.75
2023-01-28T20:02:37.281Z,102587.75
2023-01-28T20:05:06.073Z,102591.31
2023-01-28T20:07:35.394Z,102587.06
2023-01-28T20:10:03.321Z,102595.91
2023-01-28T20:12:31.384Z,102604.91
2023-01-28T20:14:59.236Z,102602.19
2023-01-28T20:17:28.559Z,102594.03
2023-01-28T20:19:56.548Z,102591.16
2023-01-28T20:22:24.424Z,102585.88
2023-01-28T20:24:57.220Z,102587.59
2023-01-28T20:27:25.528Z,102592.16
2023-01-28T20:29:53.498Z,102597.59
2023-01-28T20:32:23.126Z,102587.59
2023-01-28T20:34:51.920Z,102594.88
2023-01-28T20:37:19.864Z,102589.63
2023-01-28T20:39:47.798Z,102585.19
2023-01-28T20:42:17.127Z,102594.03
2023-01-28T20:44:45.175Z,102593.03
2023-01-28T20:47:13.105Z,102586.72
2023-01-28T20:49:41.757Z,102573.31
2023-01-28T20:52:10.349Z,102572.28
2023-01-28T20:54:38.465Z,102559.56
2023-01-28T20:57:07.095Z,102561.25
2023-01-28T20:59:37.245Z,102561.25
2023-01-28T21:02:07.026Z,102556.66
2023-01-28T21:04:35.995Z,102561.25
2023-01-28T21:07:03.908Z,102553.13
2023-01-28T21:09:31.846Z,102552.25
2023-01-28T21:12:00.029Z,102553.13
2023-01-28T21:14:27.948Z,102558.56
2023-01-28T21:16:57.554Z,102553.13
2023-01-28T21:19:25.569Z,102554.97
2023-01-28T21:21:53.539Z,102552.25
2023-01-28T21:24:21.853Z,102559.56
2023-01-28T21:26:49.745Z,102556.84
2023-01-28T21:29:18.861Z,102548.69
2023-01-28T21:31:46.819Z,102535.97
2023-01-28T21:34:16.859Z,102532.41
2023-01-28T21:36:44.930Z,102534.09
2023-01-28T21:39:12.850Z,102537.81
2023-01-28T21:41:41.103Z,102531.38
2023-01-28T21:44:09.034Z,102531.53
2023-01-28T21:46:37.048Z,102530.53
2023-01-28T21:49:05.347Z,102521.69
2023-01-28T21:51:39.760Z,102523.56
2023-01-28T21:54:08.825Z,102519.13
2023-01-28T21:56:36.692Z,102527.13
2023-01-28T21:59:22.096Z,102519.81
2023-01-28T22:01:50.129Z,102524.41
2023-01-28T22:04:18.087Z,102523.56
2023-01-28T22:06:47.437Z,102526.28
2023-01-28T22:09:15.307Z,102522.69
2023-01-28T22:11:43.790Z,102529.00
2023-01-28T22:14:11.774Z,102517.28
2023-01-28T22:16:39.825Z,102522.69
2023-01-28T22:19:07.740Z,102531.69
2023-01-28T22:21:40.984Z,102531.69
2023-01-28T22:24:12.002Z,102530.84
2023-01-28T22:26:39.940Z,102544.44
2023-01-28T22:29:07.938Z,102532.72
2023-01-28T22:31:36.072Z,102537.31
2023-01-28T22:34:04.657Z,102510.66
2023-01-28T22:36:33.531Z,102546.31
2023-01-28T22:39:02.010Z,102549.88
2023-01-28T22:41:31.629Z,102546.13
2023-01-28T22:44:01.601Z,102547.16
2023-01-28T22:46:29.787Z,102552.59
2023-01-28T22:48:57.728Z,102554.44
2023-01-28T22:51:26.409Z,102554.44
2023-01-28T22:53:54.437Z,102550.06
2023-01-28T22:56:23.767Z,102554.44
2023-01-28T22:58:56.778Z,102556.50
2023-01-28T23:01:25.924Z,102559.03
2023-01-28T23:03:55.790Z,102558.38
2023-01-28T23:06:23.884Z,102547.19
2023-01-28T23:08:52.007Z,102554.66
2023-01-28T23:11:27.360Z,102550.22
2023-01-28T23:14:15.059Z,102564.81
2023-01-28T23:17:00.717Z,102554.81
2023-01-28T23:19:46.005Z,102551.25
2023-01-28T23:22:33.843Z,102551.25
2023-01-28T23:25:01.771Z,102549.75
2023-01-28T23:27:29.810Z,102550.56
2023-01-28T23:29:59.104Z,102549.75
2023-01-28T23:32:27.032Z,102533.75
2023-01-28T23:34:54.885Z,102538.88
2023-01-28T23:37:23.168Z,102533.59
2023-01-28T23:39:51.131Z,102538.69
2023-01-28T23:42:20.772Z,102541.38
2023-01-28T23:44:48.917Z,102544.09
2023-01-28T23:47:19.133Z,102540.53
2023-01-28T23:49:46.997Z,102531.53
2023-01-28T23:52:15.278Z,102530.53
2023-01-28T23:54:43.147Z,102529.69
2023-01-28T23:57:11.016Z,102515.25
2023-01-28T23:59:38.912Z,102520.69
